sensor_id;sensor_type;location;lat;lon;timestamp;pressure;altitude;pressure_sealevel;temperature;humidity
5996;BME280;3026;53.612;7.278;2023-04-08T00:01:04;102373.44;;;6.27;100.00
5996;BME280;3026;53.612;7.278;2023-04-08T00:03:31;102369.44;;;6.33;100.00
5996;BME280;3026;53.612;7.278;2023-04-08T00:05:58;102379.16;;;6.35;100.00
5996;BME280;3026;53.612;7.278;2023-04-08T00:08:27;102373.56;;;6.38;100.00
5996;BME280;3026;53.612;7.278;2023-04-08T00:10:55;102377.03;;;6.40;100.00
5996;BME280;3026;53.612;7.278;2023-04-08T00:13:23;102379.63;;;6.42;100.00
5996;BME280;3026;53.612;7.278;2023-04-08T00:15:50;102375.94;;;6.43;100.00
5996;BME280;3026;53.612;7.278;2023-04-08T00:18:17;102371.16;;;6.47;100.00
5996;BME280;3026;53.612;7.278;2023-04-08T00:20:44;102385.50;;;6.49;100.00
5996;BME280;3026;53.612;7.278;2023-04-08T00:23:11;102379.09;;;6.50;100.00
5996;BME280;3026;53.612;7.278;2023-04-08T00:25:37;102375.28;;;6.52;100.00
5996;BME280;3026;53.612;7.278;2023-04-08T00:28:04;102381.34;;;6.56;100.00
5996;BME280;3026;53.612;7.278;2023-04-08T00:30:32;102376.69;;;6.58;100.00
5996;BME280;3026;53.612;7.278;2023-04-08T00:32:59;102380.25;;;6.58;100.00
5996;BME280;3026;53.612;7.278;2023-04-08T00:35:27;102382.84;;;6.60;100.00
5996;BME280;3026;53.612;7.278;2023-04-08T00:37:54;102380.06;;;6.61;100.00
5996;BME280;3026;53.612;7.278;2023-04-08T00:40:21;102375.28;;;6.65;100.00
5996;BME280;3026;53.612;7.278;2023-04-08T00:42:47;102377.75;;;6.68;100.00
5996;BME280;3026;53.612;7.278;2023-04-08T00:45:14;102380.47;;;6.68;100.00
5996;BME280;3026;53.612;7.278;2023-04-08T00:47:42;102379.38;;;6.70;100.00
5996;BME280;3026;53.612;7.278;2023-04-08T00:50:11;102376.78;;;6.69;100.00
5996;BME280;3026;53.612;7.278;2023-04-08T00:52:37;102374.81;;;6.71;100.00
5996;BME280;3026;53.612;7.278;2023-04-08T00:55:05;102365.94;;;6.69;100.00
5996;BME280;3026;53.612;7.278;2023-04-08T00:57:32;102378.75;;;6.67;100.00
5996;BME280;3026;53.612;7.278;2023-04-08T00:59:59;102372.34;;;6.68;100.00
5996;BME280;3026;53.612;7.278;2023-04-08T01:02:30;102373.31;;;6.67;100.00
5996;BME280;3026;53.612;7.278;2023-04-08T01:05:04;102377.00;;;6.66;100.00
5996;BME280;3026;53.612;7.278;2023-04-08T01:07:34;102379.84;;;6.64;100.00
5996;BME280;3026;53.612;7.278;2023-04-08T01:10:05;102371.59;;;6.66;100.00
5996;BME280;3026;53.612;7.278;2023-04-08T01:12:39;102367.91;;;6.67;100.00
5996;BME280;3026;53.612;7.278;2023-04-08T01:15:10;102376.78;;;6.69;100.00
5996;BME280;3026;53.612;7.278;2023-04-08T01:17:37;102371.47;;;6.67;100.00
5996;BME280;3026;53.612;7.278;2023-04-08T01:20:08;102380.25;;;6.71;100.00
5996;BME280;3026;53.612;7.278;2023-04-08T01:22:49;102385.47;;;6.74;100.00
5996;BME280;3026;53.612;7.278;2023-04-08T01:25:21;102385.47;;;6.74;100.00
5996;BME280;3026;53.612;7.278;2023-04-08T01:27:51;102386.22;;;6.76;100.00
5996;BME280;3026;53.612;7.278;2023-04-08T01:30:22;102380.78;;;6.76;100.00
5996;BME280;3026;53.612;7.278;2023-04-08T01:32:51;102376.34;;;6.75;100.00
5996;BME280;3026;53.612;7.278;2023-04-08T01:35:20;102385.25;;;6.77;100.00
5996;BME280;3026;53.612;7.278;2023-04-08T01:37:48;102373.41;;;6.78;100.00
5996;BME280;3026;53.612;7.278;2023-04-08T01:40:16;102375.25;;;6.78;100.00
5996;BME280;3026;53.612;7.278;2023-04-08T01:42:44;102376.34;;;6.75;100.00
5996;BME280;3026;53.612;7.278;2023-04-08T01:45:14;102381.78;;;6.75;100.00
5996;BME280;3026;53.612;7.278;2023-04-08T01:47:43;102371.16;;;6.72;100.00
5996;BME280;3026;53.612;7.278;2023-04-08T01:50:11;102387.94;;;6.77;100.00
5996;BME280;3026;53.612;7.278;2023-04-08T01:52:40;102385.25;;;6.77;100.00
5996;BME280;3026;53.612;7.278;2023-04-08T01:55:09;102388.69;;;6.79;100.00
5996;BME280;3026;53.612;7.278;2023-04-08T01:57:37;102384.16;;;6.80;100.00
5996;BME280;3026;53.612;7.278;2023-04-08T02:00:07;102386.75;;;6.81;100.00
5996;BME280;3026;53.612;7.278;2023-04-08T02:02:37;102390.31;;;6.82;100.00
5996;BME280;3026;53.612;7.278;2023-04-08T02:05:06;102386.75;;;6.81;100.00
5996;BME280;3026;53.612;7.278;2023-04-08T02:07:34;102379.59;;;6.80;100.00
5996;BME280;3026;53.612;7.278;2023-04-08T02:10:01;102388.47;;;6.82;100.00
5996;BME280;3026;53.612;7.278;2023-04-08T02:12:28;102383.03;;;6.82;100.00
5996;BME280;3026;53.612;7.278;2023-04-08T02:14:55;102387.59;;;6.82;100.00
5996;BME280;3026;53.612;7.278;2023-04-08T02:17:27;102383.03;;;6.82;100.00
5996;BME280;3026;53.612;7.278;2023-04-08T02:20:02;102388.47;;;6.82;100.00
5996;BME280;3026;53.612;7.278;2023-04-08T02:22:37;102388.47;;;6.82;100.00
5996;BME280;3026;53.612;7.278;2023-04-08T02:25:08;102390.44;;;6.80;100.00
5996;BME280;3026;53.612;7.278;2023-04-08T02:27:38;102394.34;;;6.76;100.00
5996;BME280;3026;53.612;7.278;2023-04-08T02:30:07;102394.13;;;6.79;100.00
5996;BME280;3026;53.612;7.278;2023-04-08T02:32:36;102399.53;;;6.79;100.00
5996;BME280;3026;53.612;7.278;2023-04-08T02:35:05;102396.09;;;6.77;100.00
5996;BME280;3026;53.612;7.278;2023-04-08T02:37:32;102394.34;;;6.76;100.00
5996;BME280;3026;53.612;7.278;2023-04-08T02:39:59;102400.75;;;6.75;100.00
5996;BME280;3026;53.612;7.278;2023-04-08T02:42:26;102404.97;;;6.79;100.00
5996;BME280;3026;53.612;7.278;2023-04-08T02:44:53;102402.16;;;6.81;100.00
5996;BME280;3026;53.612;7.278;2023-04-08T02:47:20;102415.59;;;6.82;100.00
5996;BME280;3026;53.612;7.278;2023-04-08T02:49:47;102408.66;;;6.78;100.00
5996;BME280;3026;53.612;7.278;2023-04-08T02:52:18;102413.75;;;6.83;100.00
5996;BME280;3026;53.612;7.278;2023-04-08T02:54:45;102420.13;;;6.82;100.00
5996;BME280;3026;53.612;7.278;2023-04-08T02:57:12;102404.84;;;6.81;100.00
5996;BME280;3026;53.612;7.278;2023-04-08T02:59:39;102411.94;;;6.83;100.00
5996;BME280;3026;53.612;7.278;2023-04-08T03:02:05;102407.44;;;6.82;100.00
5996;BME280;3026;53.612;7.278;2023-04-08T03:04:32;102408.22;;;6.84;100.00
5996;BME280;3026;53.612;7.278;2023-04-08T03:06:59;102421.78;;;6.84;100.00
5996;BME280;3026;53.612;7.278;2023-04-08T03:09:27;102420.81;;;6.85;100.00
5996;BME280;3026;53.612;7.278;2023-04-08T03:11:54;102415.59;;;6.82;100.00
5996;BME280;3026;53.612;7.278;2023-04-08T03:14:21;102413.84;;;6.81;100.00
5996;BME280;3026;53.612;7.278;2023-04-08T03:16:47;102426.97;;;6.87;100.00
5996;BME280;3026;53.612;7.278;2023-04-08T03:19:14;102418.84;;;6.87;100.00
5996;BME280;3026;53.612;7.278;2023-04-08T03:21:41;102421.69;;;6.86;100.00
5996;BME280;3026;53.612;7.278;2023-04-08T03:24:08;102423.41;;;6.87;100.00
5996;BME280;3026;53.612;7.278;2023-04-08T03:26:36;102424.50;;;6.84;100.00
5996;BME280;3026;53.612;7.278;2023-04-08T03:29:03;102420.59;;;6.88;100.00
5996;BME280;3026;53.612;7.278;2023-04-08T03:31:31;102430.22;;;6.92;100.00
5996;BME280;3026;53.612;7.278;2023-04-08T03:33:58;102423.06;;;6.91;100.00
5996;BME280;3026;53.612;7.278;2023-04-08T03:36:25;102418.63;;;6.90;100.00
5996;BME280;3026;53.612;7.278;2023-04-08T03:38:52;102416.88;;;6.89;100.00
5996;BME280;3026;53.612;7.278;2023-04-08T03:41:19;102416.03;;;6.89;100.00
5996;BME280;3026;53.612;7.278;2023-04-08T03:43:47;102426.00;;;6.88;100.00
5996;BME280;3026;53.612;7.278;2023-04-08T03:46:14;102429.47;;;6.90;100.00
5996;BME280;3026;53.612;7.278;2023-04-08T03:48:40;102423.06;;;6.91;100.00
5996;BME280;3026;53.612;7.278;2023-04-08T03:51:07;102426.00;;;6.88;100.00
5996;BME280;3026;53.612;7.278;2023-04-08T03:53:34;102428.59;;;6.90;100.00
5996;BME280;3026;53.612;7.278;2023-04-08T03:56:01;102429.47;;;6.90;100.00
5996;BME280;3026;53.612;7.278;2023-04-08T03:58:28;102417.13;;;6.86;100.00
5996;BME280;3026;53.612;7.278;2023-04-08T04:00:57;102430.22;;;6.92;100.00
5996;BME280;3026;53.612;7.278;2023-04-08T04:03:24;102429.47;;;6.90;100.00
5996;BME280;3026;53.612;7.278;2023-04-08T04:05:51;102428.50;;;6.91;100.00
5996;BME280;3026;53.612;7.278;2023-04-08T04:08:18;102429.47;;;6.90;100.00
5996;BME280;3026;53.612;7.278;2023-04-08T04:10:45;102436.41;;;6.94;100.00
5996;BME280;3026;53.612;7.278;2023-04-08T04:13:12;102439.03;;;6.96;100.00
5996;BME280;3026;53.612;7.278;2023-04-08T04:15:39;102422.31;;;6.89;100.00
5996;BME280;3026;53.612;7.278;2023-04-08T04:18:07;102424.03;;;6.90;100.00
5996;BME280;3026;53.612;7.278;2023-04-08T04:20:34;102432.75;;;6.95;100.00
5996;BME280;3026;53.612;7.278;2023-04-08T04:23:02;102441.63;;;6.97;100.00
5996;BME280;3026;53.612;7.278;2023-04-08T04:25:29;102431.75;;;6.96;100.00
5996;BME280;3026;53.612;7.278;2023-04-08T04:27:56;102441.81;;;6.94;100.00
5996;BME280;3026;53.612;7.278;2023-04-08T04:30:23;102439.91;;;6.96;100.00
5996;BME280;3026;53.612;7.278;2023-04-08T04:32:50;102438.16;;;6.95;100.00
5996;BME280;3026;53.612;7.278;2023-04-08T04:35:18;102436.09;;;6.99;100.00
5996;BME280;3026;53.612;7.278;2023-04-08T04:37:45;102444.09;;;7.00;100.00
5996;BME280;3026;53.612;7.278;2023-04-08T04:40:14;102434.25;;;6.99;100.00
5996;BME280;3026;53.612;7.278;2023-04-08T04:42:41;102437.94;;;6.98;100.00
5996;BME280;3026;53.612;7.278;2023-04-08T04:45:09;102435.44;;;6.95;100.00
5996;BME280;3026;53.612;7.278;2023-04-08T04:47:36;102437.06;;;6.98;100.00
5996;BME280;3026;53.612;7.278;2023-04-08T04:50:03;102444.97;;;7.01;100.00
5996;BME280;3026;53.612;7.278;2023-04-08T04:52:31;102434.47;;;6.96;100.00
5996;BME280;3026;53.612;7.278;2023-04-08T04:54:58;102445.09;;;6.99;100.00
5996;BME280;3026;53.612;7.278;2023-04-08T04:57:25;102452.25;;;7.00;100.00
5996;BME280;3026;53.612;7.278;2023-04-08T04:59:52;102446.81;;;7.00;100.00
5996;BME280;3026;53.612;7.278;2023-04-08T05:02:18;102456.56;;;7.03;100.00
5996;BME280;3026;53.612;7.278;2023-04-08T05:04:45;102455.72;;;7.02;100.00
5996;BME280;3026;53.612;7.278;2023-04-08T05:07:12;102453.97;;;7.01;100.00
5996;BME280;3026;53.612;7.278;2023-04-08T05:09:40;102455.72;;;7.02;100.00
5996;BME280;3026;53.612;7.278;2023-04-08T05:12:07;102450.28;;;7.02;100.00
5996;BME280;3026;53.612;7.278;2023-04-08T05:14:34;102446.81;;;7.00;100.00
5996;BME280;3026;53.612;7.278;2023-04-08T05:17:01;102452.00;;;7.03;100.00
5996;BME280;3026;53.612;7.278;2023-04-08T05:19:27;102452.13;;;7.02;100.00
5996;BME280;3026;53.612;7.278;2023-04-08T05:21:54;102459.16;;;7.05;100.00
5996;BME280;3026;53.612;7.278;2023-04-08T05:24:21;102462.66;;;7.07;100.00
5996;BME280;3026;53.612;7.278;2023-04-08T05:26:49;102458.41;;;7.02;100.00
5996;BME280;3026;53.612;7.278;2023-04-08T05:29:17;102469.81;;;7.08;100.00
5996;BME280;3026;53.612;7.278;2023-04-08T05:31:46;102475.25;;;7.08;100.00
5996;BME280;3026;53.612;7.278;2023-04-08T05:34:12;102482.41;;;7.09;100.00
5996;BME280;3026;53.612;7.278;2023-04-08T05:36:40;102478.81;;;7.08;100.00
5996;BME280;3026;53.612;7.278;2023-04-08T05:39:06;102480.69;;;7.08;100.00
5996;BME280;3026;53.612;7.278;2023-04-08T05:41:33;102480.69;;;7.08;100.00
5996;BME280;3026;53.612;7.278;2023-04-08T05:44:01;102485.97;;;7.09;100.00
5996;BME280;3026;53.612;7.278;2023-04-08T05:46:28;102480.44;;;7.11;100.00
5996;BME280;3026;53.612;7.278;2023-04-08T05:48:55;102480.44;;;7.11;100.00
5996;BME280;3026;53.612;7.278;2023-04-08T05:51:22;102482.06;;;7.13;100.00
5996;BME280;3026;53.612;7.278;2023-04-08T05:53:49;102483.78;;;7.14;100.00
5996;BME280;3026;53.612;7.278;2023-04-08T05:56:15;102489.09;;;7.16;100.00
5996;BME280;3026;53.612;7.278;2023-04-08T05:58:42;102483.69;;;7.16;100.00
5996;BME280;3026;53.612;7.278;2023-04-08T06:01:10;102492.59;;;7.18;100.00
5996;BME280;3026;53.612;7.278;2023-04-08T06:03:37;102493.34;;;7.20;100.00
5996;BME280;3026;53.612;7.278;2023-04-08T06:06:08;102499.53;;;7.22;100.00
5996;BME280;3026;53.612;7.278;2023-04-08T06:08:35;102504.72;;;7.25;100.00
5996;BME280;3026;53.612;7.278;2023-04-08T06:11:02;102509.94;;;7.28;100.00
5996;BME280;3026;53.612;7.278;2023-04-08T06:13:29;102493.88;;;7.25;100.00
5996;BME280;3026;53.612;7.278;2023-04-08T06:15:56;102490.94;;;7.28;100.00
5996;BME280;3026;53.612;7.278;2023-04-08T06:18:25;102504.94;;;7.35;100.00
5996;BME280;3026;53.612;7.278;2023-04-08T06:20:52;102505.81;;;7.35;100.00
5996;BME280;3026;53.612;7.278;2023-04-08T06:23:18;102509.28;;;7.37;100.00
5996;BME280;3026;53.612;7.278;2023-04-08T06:25:45;102513.72;;;7.38;100.00
5996;BME280;3026;53.612;7.278;2023-04-08T06:28:12;102518.38;;;7.36;100.00
5996;BME280;3026;53.612;7.278;2023-04-08T06:30:39;102516.44;;;7.38;100.00
5996;BME280;3026;53.612;7.278;2023-04-08T06:33:06;102516.22;;;7.41;100.00
5996;BME280;3026;53.612;7.278;2023-04-08T06:35:34;102508.84;;;7.43;100.00
5996;BME280;3026;53.612;7.278;2023-04-08T06:38:01;102511.31;;;7.46;100.00
5996;BME280;3026;53.612;7.278;2023-04-08T06:40:28;102516.28;;;7.52;100.00
5996;BME280;3026;53.612;7.278;2023-04-08T06:42:55;102519.44;;;7.59;100.00
5996;BME280;3026;53.612;7.278;2023-04-08T06:45:22;102520.84;;;7.65;100.00
5996;BME280;3026;53.612;7.278;2023-04-08T06:47:49;102523.97;;;7.71;100.00
5996;BME280;3026;53.612;7.278;2023-04-08T06:50:15;102523.72;;;7.74;100.00
5996;BME280;3026;53.612;7.278;2023-04-08T06:52:44;102536.31;;;7.75;100.00
5996;BME280;3026;53.612;7.278;2023-04-08T06:55:11;102536.13;;;7.78;100.00
5996;BME280;3026;53.612;7.278;2023-04-08T06:57:37;102539.59;;;7.80;100.00
5996;BME280;3026;53.612;7.278;2023-04-08T07:00:05;102540.97;;;7.86;100.00
5996;BME280;3026;53.612;7.278;2023-04-08T07:02:33;102545.22;;;7.90;100.00
5996;BME280;3026;53.612;7.278;2023-04-08T07:05:00;102548.44;;;7.95;100.00
5996;BME280;3026;53.612;7.278;2023-04-08T07:07:27;102553.44;;;8.01;100.00
5996;BME280;3026;53.612;7.278;2023-04-08T07:09:55;102557.75;;;8.04;100.00
5996;BME280;3026;53.612;7.278;2023-04-08T07:12:21;102545.41;;;8.00;100.00
5996;BME280;3026;53.612;7.278;2023-04-08T07:14:48;102555.91;;;8.04;100.00
5996;BME280;3026;53.612;7.278;2023-04-08T07:17:16;102561.34;;;8.04;100.00
5996;BME280;3026;53.612;7.278;2023-04-08T07:19:44;102549.72;;;8.02;100.00
5996;BME280;3026;53.612;7.278;2023-04-08T07:22:11;102553.81;;;8.08;100.00
5996;BME280;3026;53.612;7.278;2023-04-08T07:24:38;102556.41;;;8.09;100.00
5996;BME280;3026;53.612;7.278;2023-04-08T07:27:08;102557.94;;;8.13;100.00
5996;BME280;3026;53.612;7.278;2023-04-08T07:29:35;102552.25;;;8.16;100.00
5996;BME280;3026;53.612;7.278;2023-04-08T07:32:03;102559.44;;;8.17;100.00
5996;BME280;3026;53.612;7.278;2023-04-08T07:34:30;102551.03;;;8.20;100.00
5996;BME280;3026;53.612;7.278;2023-04-08T07:36:57;102560.91;;;8.22;100.00
5996;BME280;3026;53.612;7.278;2023-04-08T07:39:24;102542.44;;;8.27;100.00
5996;BME280;3026;53.612;7.278;2023-04-08T07:41:51;102552.09;;;8.31;100.00
5996;BME280;3026;53.612;7.278;2023-04-08T07:44:19;102548.94;;;8.37;100.00
5996;BME280;3026;53.612;7.278;2023-04-08T07:46:45;102553.41;;;8.38;100.00
5996;BME280;3026;53.612;7.278;2023-04-08T07:49:15;102561.19;;;8.42;100.00
5996;BME280;3026;53.612;7.278;2023-04-08T07:51:42;102552.16;;;8.42;100.00
5996;BME280;3026;53.612;7.278;2023-04-08T07:54:09;102563.47;;;8.48;100.00
5996;BME280;3026;53.612;7.278;2023-04-08T07:56:41;102567.53;;;8.54;100.00
5996;BME280;3026;53.612;7.278;2023-04-08T07:59:09;102561.91;;;8.57;100.00
5996;BME280;3026;53.612;7.278;2023-04-08T08:01:37;102572.53;;;8.60;100.00
5996;BME280;3026;53.612;7.278;2023-04-08T08:04:04;102570.56;;;8.62;100.00
5996;BME280;3026;53.612;7.278;2023-04-08T08:06:31;102570.31;;;8.65;100.00
5996;BME280;3026;53.612;7.278;2023-04-08T08:08:58;102573.75;;;8.67;100.00
5996;BME280;3026;53.612;7.278;2023-04-08T08:11:25;102573.56;;;8.70;100.00
5996;BME280;3026;53.612;7.278;2023-04-08T08:13:52;102573.56;;;8.70;100.00
5996;BME280;3026;53.612;7.278;2023-04-08T08:16:19;102571.81;;;8.69;100.00
5996;BME280;3026;53.612;7.278;2023-04-08T08:18:47;102585.50;;;8.68;100.00
5996;BME280;3026;53.612;7.278;2023-04-08T08:21:14;102591.19;;;8.65;100.00
5996;BME280;3026;53.612;7.278;2023-04-08T08:23:41;102581.44;;;8.62;100.00
5996;BME280;3026;53.612;7.278;2023-04-08T08:26:08;102592.56;;;8.59;100.00
5996;BME280;3026;53.612;7.278;2023-04-08T08:28:35;102604.41;;;8.58;100.00
5996;BME280;3026;53.612;7.278;2023-04-08T08:31:02;102605.16;;;8.60;100.00
5996;BME280;3026;53.612;7.278;2023-04-08T08:33:30;102603.19;;;8.62;100.00
5996;BME280;3026;53.612;7.278;2023-04-08T08:35:58;102592.31;;;8.62;100.00
5996;BME280;3026;53.612;7.278;2023-04-08T08:38:25;102590.56;;;8.61;100.00
5996;BME280;3026;53.612;7.278;2023-04-08T08:40:53;102590.56;;;8.61;100.00
5996;BME280;3026;53.612;7.278;2023-04-08T08:43:21;102593.78;;;8.66;100.00
5996;BME280;3026;53.612;7.278;2023-04-08T08:45:48;102595.53;;;8.67;100.00
5996;BME280;3026;53.612;7.278;2023-04-08T08:48:15;102595.53;;;8.67;100.00
5996;BME280;3026;53.612;7.278;2023-04-08T08:50:42;102604.47;;;8.69;100.00
5996;BME280;3026;53.612;7.278;2023-04-08T08:53:11;102604.84;;;8.76;100.00
5996;BME280;3026;53.612;7.278;2023-04-08T08:55:38;102602.00;;;8.77;100.00
5996;BME280;3026;53.612;7.278;2023-04-08T08:58:05;102598.06;;;8.82;100.00
5996;BME280;3026;53.612;7.278;2023-04-08T09:00:34;102608.59;;;8.86;100.00
5996;BME280;3026;53.612;7.278;2023-04-08T09:03:15;102606.50;;;8.90;100.00
5996;BME280;3026;53.612;7.278;2023-04-08T09:05:50;102606.72;;;8.87;100.00
5996;BME280;3026;53.612;7.278;2023-04-08T09:08:27;102615.88;;;8.86;100.00
5996;BME280;3026;53.612;7.278;2023-04-08T09:10:54;102620.09;;;8.90;100.00
5996;BME280;3026;53.612;7.278;2023-04-08T09:13:22;102616.91;;;8.96;100.00
5996;BME280;3026;53.612;7.278;2023-04-08T09:16:08;102611.22;;;8.99;100.00
5996;BME280;3026;53.612;7.278;2023-04-08T09:18:35;102601.06;;;9.01;100.00
5996;BME280;3026;53.612;7.278;2023-04-08T09:21:03;102613.50;;;9.16;100.00
5996;BME280;3026;53.612;7.278;2023-04-08T09:23:40;102618.44;;;9.22;100.00
5996;BME280;3026;53.612;7.278;2023-04-08T09:26:08;102624.44;;;9.27;100.00
5996;BME280;3026;53.612;7.278;2023-04-08T09:28:35;102624.91;;;9.32;100.00
5996;BME280;3026;53.612;7.278;2023-04-08T09:31:18;102631.63;;;9.40;100.00
5996;BME280;3026;53.612;7.278;2023-04-08T09:33:46;102627.91;;;9.41;100.00
5996;BME280;3026;53.612;7.278;2023-04-08T09:36:13;102624.69;;;9.47;100.00
5996;BME280;3026;53.612;7.278;2023-04-08T09:38:42;102624.69;;;9.58;100.00
5996;BME280;3026;53.612;7.278;2023-04-08T09:41:12;102626.19;;;9.62;100.00
5996;BME280;3026;53.612;7.278;2023-04-08T09:43:42;102619.03;;;9.61;100.00
5996;BME280;3026;53.612;7.278;2023-04-08T09:46:14;102617.03;;;9.63;100.00
5996;BME280;3026;53.612;7.278;2023-04-08T09:48:47;102617.78;;;9.65;100.00
5996;BME280;3026;53.612;7.278;2023-04-08T09:51:16;102617.03;;;9.63;100.00
5996;BME280;3026;53.612;7.278;2023-04-08T09:53:51;102611.81;;;9.60;100.00
5996;BME280;3026;53.612;7.278;2023-04-08T09:56:21;102621.50;;;9.64;100.00
5996;BME280;3026;53.612;7.278;2023-04-08T09:58:51;102622.47;;;9.63;100.00
5996;BME280;3026;53.612;7.278;2023-04-08T10:01:25;102615.91;;;9.65;100.00
5996;BME280;3026;53.612;7.278;2023-04-08T10:03:54;102610.59;;;9.75;100.00
5996;BME280;3026;53.612;7.278;2023-04-08T10:06:25;102612.06;;;9.79;100.00
5996;BME280;3026;53.612;7.278;2023-04-08T10:08:55;102617.03;;;9.85;100.00
5996;BME280;3026;53.612;7.278;2023-04-08T10:11:22;102621.97;;;9.91;100.00
5996;BME280;3026;53.612;7.278;2023-04-08T10:13:49;102619.50;;;10.00;100.00
5996;BME280;3026;53.612;7.278;2023-04-08T10:16:20;102621.81;;;10.04;100.00
5996;BME280;3026;53.612;7.278;2023-04-08T10:18:48;102623.41;;;10.18;100.00
5996;BME280;3026;53.612;7.278;2023-04-08T10:21:37;102629.38;;;10.34;100.00
5996;BME280;3026;53.612;7.278;2023-04-08T10:24:09;102627.81;;;10.52;100.00
5996;BME280;3026;53.612;7.278;2023-04-08T10:26:38;102627.50;;;10.78;100.00
5996;BME280;3026;53.612;7.278;2023-04-08T10:29:30;102628.69;;;10.85;100.00
5996;BME280;3026;53.612;7.278;2023-04-08T10:31:57;102632.56;;;10.82;100.00
5996;BME280;3026;53.612;7.278;2023-04-08T10:34:25;102640.81;;;10.92;100.00
5996;BME280;3026;53.612;7.278;2023-04-08T10:36:53;102636.56;;;10.99;100.00
5996;BME280;3026;53.612;7.278;2023-04-08T10:39:23;102641.22;;;11.08;100.00
5996;BME280;3026;53.612;7.278;2023-04-08T10:41:51;102639.31;;;11.20;100.00
5996;BME280;3026;53.612;7.278;2023-04-08T10:44:19;102635.56;;;11.21;100.00
5996;BME280;3026;53.612;7.278;2023-04-08T10:46:46;102634.63;;;11.11;100.00
5996;BME280;3026;53.612;7.278;2023-04-08T10:49:14;102637.25;;;11.13;100.00
5996;BME280;3026;53.612;7.278;2023-04-08T10:51:42;102635.25;;;11.15;100.00
5996;BME280;3026;53.612;7.278;2023-04-08T10:54:11;102638.00;;;11.15;100.00
5996;BME280;3026;53.612;7.278;2023-04-08T10:56:44;102636.13;;;11.15;100.00
5996;BME280;3026;53.612;7.278;2023-04-08T10:59:12;102630.94;;;11.12;100.00
5996;BME280;3026;53.612;7.278;2023-04-08T11:01:42;102630.31;;;11.08;100.00
5996;BME280;3026;53.612;7.278;2023-04-08T11:04:13;102639.50;;;11.07;100.00
5996;BME280;3026;53.612;7.278;2023-04-08T11:06:42;102637.31;;;11.01;100.00
5996;BME280;3026;53.612;7.278;2023-04-08T11:09:09;102630.31;;;11.08;100.00
5996;BME280;3026;53.612;7.278;2023-04-08T11:11:36;102630.31;;;11.08;100.00
5996;BME280;3026;53.612;7.278;2023-04-08T11:14:05;102634.78;;;11.09;100.00
5996;BME280;3026;53.612;7.278;2023-04-08T11:16:33;102638.03;;;11.03;100.00
5996;BME280;3026;53.612;7.278;2023-04-08T11:19:02;102637.38;;;10.90;100.00
5996;BME280;3026;53.612;7.278;2023-04-08T11:21:29;102638.16;;;10.81;100.00
5996;BME280;3026;53.612;7.278;2023-04-08T11:23:56;102629.56;;;10.86;100.00
5996;BME280;3026;53.612;7.278;2023-04-08T11:26:24;102632.69;;;10.81;100.00
5996;BME280;3026;53.612;7.278;2023-04-08T11:28:52;102634.69;;;10.79;100.00
5996;BME280;3026;53.612;7.278;2023-04-08T11:31:21;102633.28;;;10.85;100.00
5996;BME280;3026;53.612;7.278;2023-04-08T11:33:51;102628.69;;;10.85;100.00
5996;BME280;3026;53.612;7.278;2023-04-08T11:36:18;102633.88;;;10.88;100.00
5996;BME280;3026;53.612;7.278;2023-04-08T11:38:46;102630.19;;;10.89;100.00
5996;BME280;3026;53.612;7.278;2023-04-08T11:41:13;102637.38;;;10.90;100.00
5996;BME280;3026;53.612;7.278;2023-04-08T11:43:50;102635.88;;;10.86;100.00
5996;BME280;3026;53.612;7.278;2023-04-08T11:46:17;102642.38;;;10.74;100.00
5996;BME280;3026;53.612;7.278;2023-04-08T11:49:02;102642.91;;;10.68;100.00
5996;BME280;3026;53.612;7.278;2023-04-08T11:51:29;102642.97;;;10.57;100.00
5996;BME280;3026;53.612;7.278;2023-04-08T11:53:56;102637.25;;;10.48;100.00
5996;BME280;3026;53.612;7.278;2023-04-08T11:56:23;102635.81;;;10.44;100.00
5996;BME280;3026;53.612;7.278;2023-04-08T11:58:51;102646.34;;;10.38;100.00
5996;BME280;3026;53.612;7.278;2023-04-08T12:01:18;102635.09;;;10.31;100.00
5996;BME280;3026;53.612;7.278;2023-04-08T12:04:00;102641.50;;;10.30;100.00
5996;BME280;3026;53.612;7.278;2023-04-08T12:06:27;102636.31;;;10.27;100.00
5996;BME280;3026;53.612;7.278;2023-04-08T12:08:56;102636.06;;;10.30;100.00
5996;BME280;3026;53.612;7.278;2023-04-08T12:11:23;102625.91;;;10.32;100.00
5996;BME280;3026;53.612;7.278;2023-04-08T12:13:50;102632.84;;;10.36;100.00
5996;BME280;3026;53.612;7.278;2023-04-08T12:16:17;102630.84;;;10.38;100.00
5996;BME280;3026;53.612;7.278;2023-04-08T12:18:44;102632.72;;;10.38;100.00
5996;BME280;3026;53.612;7.278;2023-04-08T12:21:13;102628.84;;;10.40;100.00
5996;BME280;3026;53.612;7.278;2023-04-08T12:23:40;102632.56;;;10.39;100.00
5996;BME280;3026;53.612;7.278;2023-04-08T12:26:07;102627.13;;;10.39;100.00
5996;BME280;3026;53.612;7.278;2023-04-08T12:28:34;102632.34;;;10.42;100.00
5996;BME280;3026;53.612;7.278;2023-04-08T12:31:01;102636.28;;;10.38;100.00
5996;BME280;3026;53.612;7.278;2023-04-08T12:33:28;102636.28;;;10.38;100.00
5996;BME280;3026;53.612;7.278;2023-04-08T12:35:55;102633.69;;;10.37;100.00
5996;BME280;3026;53.612;7.278;2023-04-08T12:38:25;102637.91;;;10.41;100.00
5996;BME280;3026;53.612;7.278;2023-04-08T12:40:52;102641.25;;;10.44;100.00
5996;BME280;3026;53.612;7.278;2023-04-08T12:43:19;102632.34;;;10.42;100.00
5996;BME280;3026;53.612;7.278;2023-04-08T12:45:46;102634.22;;;10.42;100.00
5996;BME280;3026;53.612;7.278;2023-04-08T12:48:13;102630.47;;;10.43;100.00
5996;BME280;3026;53.612;7.278;2023-04-08T12:50:40;102630.34;;;10.44;100.00
5996;BME280;3026;53.612;7.278;2023-04-08T12:53:07;102631.69;;;10.50;100.00
5996;BME280;3026;53.612;7.278;2023-04-08T12:55:35;102633.81;;;10.46;100.00
5996;BME280;3026;53.612;7.278;2023-04-08T12:58:02;102628.69;;;10.53;100.00
5996;BME280;3026;53.612;7.278;2023-04-08T13:00:29;102636.72;;;10.66;100.00
5996;BME280;3026;53.612;7.278;2023-04-08T13:02:56;102629.75;;;10.73;100.00
5996;BME280;3026;53.612;7.278;2023-04-08T13:05:23;102632.69;;;10.81;100.00
5996;BME280;3026;53.612;7.278;2023-04-08T13:07:50;102630.41;;;10.86;100.00
5996;BME280;3026;53.612;7.278;2023-04-08T13:10:17;102621.00;;;10.90;100.00
5996;BME280;3026;53.612;7.278;2023-04-08T13:12:45;102616.47;;;11.00;100.00